createdAt,value
2022-11-29T00:01:59.894Z,101456.09
2022-11-29T00:07:01.481Z,101462.97
2022-11-29T00:12:12.128Z,101463.00
2022-11-29T00:17:13.570Z,101472.47
2022-11-29T00:22:15.093Z,101468.16
2022-11-29T00:27:16.793Z,101476.81
2022-11-29T00:32:18.349Z,101463.81
2022-11-29T00:37:19.852Z,101469.91
2022-11-29T00:42:21.420Z,101472.41
2022-11-29T00:47:23.105Z,101479.41
2022-11-29T00:52:24.616Z,101476.78
2022-11-29T00:57:26.057Z,101471.63
2022-11-29T01:02:27.622Z,101483.69
2022-11-29T01:07:29.196Z,101473.34
2022-11-29T01:12:30.820Z,101482.78
2022-11-29T01:17:35.418Z,101482.78
2022-11-29T01:22:38.262Z,101471.53
2022-11-29T01:27:39.889Z,101464.63
2022-11-29T01:32:41.402Z,101480.16
2022-11-29T01:37:42.888Z,101484.50
2022-11-29T01:42:44.567Z,101487.97
2022-11-29T01:47:47.660Z,101489.63
2022-11-29T01:52:49.485Z,101492.22
2022-11-29T01:57:51.551Z,101487.88
2022-11-29T02:02:59.187Z,101487.88
2022-11-29T02:08:02.049Z,101487.06
2022-11-29T02:13:32.595Z,101491.34
2022-11-29T02:18:36.766Z,101495.63
2022-11-29T02:23:50.299Z,101504.28
2022-11-29T02:29:11.013Z,101501.66
2022-11-29T02:34:46.847Z,101514.59
2022-11-29T02:40:10.021Z,101510.28
2022-11-29T02:45:20.574Z,101514.59
2022-11-29T02:50:25.069Z,101513.72
2022-11-29T02:55:57.489Z,101518.91
2022-11-29T03:01:11.545Z,101522.28
2022-11-29T03:06:40.748Z,101520.63
2022-11-29T03:11:51.940Z,101511.03
2022-11-29T03:17:32.645Z,101517.91
2022-11-29T03:22:54.886Z,101523.94
2022-11-29T03:28:14.701Z,101527.34
2022-11-29T03:33:27.537Z,101535.09
2022-11-29T03:38:41.169Z,101539.41
2022-11-29T03:43:53.194Z,101550.56
2022-11-29T03:49:02.541Z,101545.41
2022-11-29T03:54:10.772Z,101552.28
2022-11-29T03:59:14.953Z,101558.31
2022-11-29T04:04:31.475Z,101564.34
2022-11-29T04:10:09.776Z,101566.06
2022-11-29T04:15:33.628Z,101564.34
2022-11-29T04:21:03.090Z,101573.81
2022-11-29T04:26:42.480Z,101568.63
2022-11-29T04:32:02.748Z,101579.00
2022-11-29T04:37:35.392Z,101575.50
2022-11-29T04:42:53.497Z,101589.28
2022-11-29T04:48:09.911Z,101588.44
2022-11-29T04:53:11.321Z,101595.31
2022-11-29T04:58:21.542Z,101599.63
2022-11-29T05:03:53.828Z,101617.66
2022-11-29T05:09:15.729Z,101615.97
2022-11-29T05:14:43.625Z,101616.09
2022-11-29T05:19:51.336Z,101621.25
2022-11-29T05:24:58.990Z,101617.75
2022-11-29T05:30:03.730Z,101618.63
2022-11-29T05:35:26.192Z,101628.84
2022-11-29T05:40:39.521Z,101631.47
2022-11-29T05:45:50.369Z,101636.66
2022-11-29T05:51:09.746Z,101647.00
2022-11-29T05:56:39.009Z,101646.19
2022-11-29T06:02:05.897Z,101656.47
2022-11-29T06:07:19.167Z,101658.19
2022-11-29T06:12:23.317Z,101662.50
2022-11-29T06:17:38.745Z,101660.72
2022-11-29T06:22:55.921Z,101668.59
2022-11-29T06:28:09.529Z,101684.03
2022-11-29T06:33:22.652Z,101681.50
2022-11-29T06:38:30.137Z,101688.38
2022-11-29T06:43:31.987Z,101692.75
2022-11-29T06:48:41.589Z,101696.22
2022-11-29T06:54:10.766Z,101697.94
2022-11-29T06:59:22.177Z,101704.81
2022-11-29T07:04:46.412Z,101714.25
2022-11-29T07:09:53.102Z,101719.41
2022-11-29T07:14:54.934Z,101738.31
2022-11-29T07:20:10.531Z,101734.91
2022-11-29T07:25:17.922Z,101743.47
2022-11-29T07:30:22.581Z,101750.41
2022-11-29T07:35:32.353Z,101758.16
2022-11-29T07:40:40.293Z,101751.28
2022-11-29T07:45:42.295Z,101756.56
2022-11-29T07:50:45.220Z,101761.69
2022-11-29T07:55:48.500Z,101766.00
2022-11-29T08:00:50.057Z,101767.66
2022-11-29T08:05:51.595Z,101778.13
2022-11-29T08:10:53.093Z,101778.16
2022-11-29T08:15:54.587Z,101783.38
2022-11-29T08:20:56.061Z,101783.41
2022-11-29T08:26:01.664Z,101781.69
2022-11-29T08:31:06.040Z,101785.97
2022-11-29T08:36:16.592Z,101786.94
2022-11-29T08:41:18.113Z,101795.59
2022-11-29T08:46:19.678Z,101796.56
2022-11-29T08:51:21.209Z,101795.69
2022-11-29T09:01:44.241Z,101806.13
2022-11-29T09:06:49.147Z,101807.16
2022-11-29T09:11:50.963Z,101795.09
2022-11-29T09:16:52.631Z,101802.97
2022-11-29T09:21:54.340Z,101812.59
2022-11-29T09:26:55.790Z,101814.31
2022-11-29T09:31:57.336Z,101816.09
2022-11-29T09:36:59.205Z,101829.03
2022-11-29T09:42:09.777Z,101838.69
2022-11-29T09:47:31.197Z,101841.34
2022-11-29T09:53:05.664Z,101847.44
2022-11-29T09:58:13.506Z,101846.53
2022-11-29T10:03:29.350Z,101855.31
2022-11-29T10:08:36.609Z,101852.72
2022-11-29T10:13:44.997Z,101861.41
2022-11-29T10:18:51.874Z,101856.22
2022-11-29T10:23:57.649Z,101855.34
2022-11-29T10:28:59.652Z,101862.28
2022-11-29T10:34:07.877Z,101864.75
2022-11-29T10:39:20.866Z,101863.03
2022-11-29T10:44:24.004Z,101864.81
2022-11-29T10:49:28.180Z,101860.44
2022-11-29T10:54:41.623Z,101855.31
2022-11-29T10:59:58.952Z,101854.53
2022-11-29T11:05:01.241Z,101856.25
2022-11-29T11:10:21.947Z,101856.31
2022-11-29T11:15:29.025Z,101854.63
2022-11-29T11:20:33.550Z,101858.88
2022-11-29T11:25:38.895Z,101842.44
2022-11-29T11:30:40.590Z,101861.56
2022-11-29T11:35:42.134Z,101862.50
2022-11-29T11:40:44.733Z,101853.94
2022-11-29T11:45:53.512Z,101846.25
2022-11-29T11:50:58.256Z,101865.34
2022-11-29T11:56:10.335Z,101865.41
2022-11-29T12:01:11.741Z,101869.75
2022-11-29T12:06:38.471Z,101876.75
2022-11-29T12:12:00.135Z,101880.13
2022-11-29T12:17:32.345Z,101887.00
2022-11-29T12:23:07.993Z,101885.28
2022-11-29T12:28:19.869Z,101886.09
2022-11-29T12:33:31.317Z,101884.44
2022-11-29T12:38:59.256Z,101899.16
2022-11-29T12:44:29.471Z,101894.03
2022-11-29T12:49:45.277Z,101906.13
2022-11-29T12:55:13.202Z,101909.53
2022-11-29T13:00:20.084Z,101908.63
2022-11-29T13:05:56.565Z,101910.34
2022-11-29T13:11:08.301Z,101916.31
2022-11-29T13:16:47.116Z,101916.31
2022-11-29T13:22:02.872Z,101924.06
2022-11-29T13:27:06.479Z,101924.00
2022-11-29T13:32:15.742Z,101924.78
2022-11-29T13:37:33.520Z,101925.56
2022-11-29T13:42:52.294Z,101940.28
2022-11-29T13:47:55.675Z,101933.28
2022-11-29T13:53:11.640Z,101928.06
2022-11-29T13:58:17.942Z,101928.00
2022-11-29T14:03:28.460Z,101932.31
2022-11-29T14:09:16.631Z,101929.72
2022-11-29T14:14:25.771Z,101927.03
2022-11-29T14:19:35.818Z,101936.59
2022-11-29T14:24:37.742Z,101938.25
2022-11-29T14:29:53.513Z,101946.84
2022-11-29T14:35:04.215Z,101950.25
2022-11-29T14:40:26.312Z,101950.28
2022-11-29T14:45:35.051Z,101939.72
2022-11-29T14:50:39.094Z,101957.09
2022-11-29T14:55:42.890Z,101968.25
2022-11-29T15:00:47.119Z,101964.81
2022-11-29T15:05:56.469Z,101970.91
2022-11-29T15:11:04.099Z,101969.00
2022-11-29T15:16:22.901Z,101985.44
2022-11-29T15:21:45.770Z,101981.03
2022-11-29T15:27:02.272Z,101974.94
2022-11-29T15:32:05.612Z,101974.13
2022-11-29T15:37:13.828Z,101970.63
2022-11-29T15:42:15.895Z,101967.13
2022-11-29T15:47:26.655Z,101984.34
2022-11-29T15:52:37.047Z,101996.50
2022-11-29T15:57:43.106Z,101989.59
2022-11-29T16:02:54.312Z,101991.19
2022-11-29T16:08:00.369Z,101999.91
2022-11-29T16:13:25.356Z,102010.34
2022-11-29T16:18:27.924Z,102029.09
2022-11-29T16:23:37.586Z,102028.34
2022-11-29T16:28:44.757Z,102035.19
2022-11-29T16:33:49.156Z,102043.00
2022-11-29T16:38:59.410Z,102038.59
2022-11-29T16:44:03.505Z,102035.19
2022-11-29T16:49:32.704Z,102044.75
2022-11-29T16:54:34.360Z,102040.31
2022-11-29T16:59:38.608Z,102050.63
2022-11-29T17:04:40.685Z,102045.47
2022-11-29T17:09:42.152Z,102050.72
2022-11-29T17:14:43.959Z,102052.38
2022-11-29T17:19:45.805Z,102056.81
2022-11-29T17:24:48.472Z,102071.38
2022-11-29T17:29:50.241Z,102078.31
2022-11-29T17:34:51.822Z,102074.88
2022-11-29T17:39:53.319Z,102087.88
2022-11-29T17:44:54.851Z,102083.50
2022-11-29T17:49:56.373Z,102094.72
2022-11-29T17:54:58.002Z,102089.47
2022-11-29T17:59:59.515Z,102093.75
2022-11-29T18:05:01.081Z,102103.28
2022-11-29T18:10:02.571Z,102110.16
2022-11-29T18:15:04.320Z,102111.81
2022-11-29T18:20:06.521Z,102117.00
2022-11-29T18:25:37.191Z,102113.47
2022-11-29T18:30:29.822Z,102122.03
2022-11-29T18:35:31.368Z,102122.97
2022-11-29T18:40:32.846Z,102141.88
2022-11-29T18:45:36.205Z,102145.50
2022-11-29T18:50:37.775Z,102147.19
2022-11-29T18:55:39.272Z,102155.88
2022-11-29T19:00:40.829Z,102153.22
2022-11-29T19:05:50.565Z,102155.75
2022-11-29T19:10:52.082Z,102162.66
2022-11-29T19:15:54.883Z,102164.41
2022-11-29T19:21:08.433Z,102161.78
2022-11-29T19:26:15.080Z,102164.38
2022-11-29T19:31:18.675Z,102155.72
2022-11-29T19:36:23.114Z,102162.63
2022-11-29T19:41:30.080Z,102164.34
2022-11-29T19:46:34.066Z,102174.63
2022-11-29T19:51:36.191Z,102173.78
2022-11-29T19:56:38.864Z,102177.22
2022-11-29T20:01:42.339Z,102182.44
2022-11-29T20:06:44.471Z,102186.78
2022-11-29T20:11:45.945Z,102190.22
2022-11-29T20:16:47.501Z,102191.94
2022-11-29T20:21:49.217Z,102192.81
2022-11-29T20:26:51.164Z,102194.53
2022-11-29T20:31:52.864Z,102194.56
2022-11-29T20:37:07.400Z,102190.22
2022-11-29T20:42:27.836Z,102185.91
2022-11-29T20:47:40.978Z,102182.47
2022-11-29T20:52:49.381Z,102191.16
2022-11-29T20:57:51.037Z,102198.88
2022-11-29T21:02:52.576Z,102197.16
2022-11-29T21:07:54.296Z,102198.88
2022-11-29T21:12:56.076Z,102204.91
2022-11-29T21:17:57.978Z,102208.41
2022-11-29T21:23:21.097Z,102204.91
2022-11-29T21:28:28.005Z,102197.06
2022-11-29T21:33:29.818Z,102207.56
2022-11-29T21:38:31.632Z,102211.78
2022-11-29T21:44:04.271Z,102207.41
2022-11-29T21:48:54.525Z,102207.41
2022-11-29T21:53:55.981Z,102207.41
2022-11-29T21:58:57.457Z,102207.50
2022-11-29T22:03:59.668Z,102210.09
2022-11-29T22:09:01.217Z,102220.66
2022-11-29T22:14:14.278Z,102218.84
2022-11-29T22:19:21.733Z,102221.28
2022-11-29T22:24:25.512Z,102224.72
2022-11-29T22:29:27.414Z,102227.22
2022-11-29T22:34:29.047Z,102230.72
2022-11-29T22:39:30.505Z,102222.31
2022-11-29T22:44:31.991Z,102229.91
2022-11-29T22:49:34.323Z,102228.09
2022-11-29T22:54:35.764Z,102234.91
2022-11-29T22:59:37.254Z,102235.00
2022-11-29T23:04:38.710Z,102231.44
2022-11-29T23:09:40.184Z,102235.00
2022-11-29T23:14:41.681Z,102237.66
2022-11-29T23:19:43.112Z,102234.97
2022-11-29T23:24:44.679Z,102241.91
2022-11-29T23:29:46.397Z,102253.91
2022-11-29T23:34:48.115Z,102254.00
2022-11-29T23:39:49.755Z,102252.25
2022-11-29T23:44:51.210Z,102259.16
2022-11-29T23:49:52.681Z,102250.44
2022-11-29T23:54:54.244Z,102244.34
2022-11-29T23:59:56.553Z,102247.84
